createdAt,value
2018-11-21T00:01:49.210Z,28.09
2018-11-21T00:04:18.773Z,28.15
2018-11-21T00:06:48.383Z,28.07
2018-11-21T00:09:17.947Z,28.00
2018-11-21T00:11:47.591Z,28.05
2018-11-21T00:14:17.217Z,27.96
2018-11-21T00:16:46.699Z,27.88
2018-11-21T00:19:16.332Z,27.87
2018-11-21T00:21:45.907Z,27.78
2018-11-21T00:24:15.536Z,27.71
2018-11-21T00:26:45.075Z,27.66
2018-11-21T00:29:14.724Z,27.65
2018-11-21T00:31:44.358Z,27.62
2018-11-21T00:34:13.938Z,27.51
2018-11-21T00:36:43.643Z,27.49
2018-11-21T00:39:13.241Z,27.44
2018-11-21T00:41:42.886Z,27.40
2018-11-21T00:44:12.563Z,27.38
2018-11-21T00:46:42.166Z,27.33
2018-11-21T00:49:11.772Z,27.34
2018-11-21T00:51:41.378Z,27.26
2018-11-21T00:54:10.974Z,27.20
2018-11-21T00:56:40.732Z,27.12
2018-11-21T00:59:10.326Z,27.07
2018-11-21T01:01:39.905Z,27.01
2018-11-21T01:04:09.435Z,26.99
2018-11-21T01:06:39.010Z,26.99
2018-11-21T01:09:08.662Z,26.94
2018-11-21T01:11:38.363Z,26.90
2018-11-21T01:14:07.960Z,26.84
2018-11-21T01:16:37.636Z,26.78
2018-11-21T01:19:07.151Z,26.76
2018-11-21T01:21:36.776Z,26.71
2018-11-21T01:24:06.519Z,26.68
2018-11-21T01:26:36.092Z,26.61
2018-11-21T01:29:05.561Z,26.64
2018-11-21T01:31:35.294Z,26.60
2018-11-21T01:34:04.830Z,26.51
2018-11-21T01:36:34.510Z,26.45
2018-11-21T01:39:04.927Z,26.48
2018-11-21T01:41:34.512Z,26.44
2018-11-21T01:44:04.122Z,26.39
2018-11-21T01:46:33.830Z,26.34
2018-11-21T01:49:03.463Z,26.35
2018-11-21T01:51:33.450Z,26.28
2018-11-21T01:54:03.080Z,26.27
2018-11-21T01:56:32.750Z,26.26
2018-11-21T01:59:02.392Z,26.21
2018-11-21T02:01:31.962Z,26.19
2018-11-21T02:04:01.606Z,26.12
2018-11-21T02:06:31.175Z,26.09
2018-11-21T02:09:00.768Z,26.05
2018-11-21T02:11:30.289Z,26.02
2018-11-21T02:13:59.928Z,25.99
2018-11-21T02:16:29.500Z,25.93
2018-11-21T02:18:59.140Z,25.90
2018-11-21T02:21:28.690Z,25.86
2018-11-21T02:23:58.422Z,25.81
2018-11-21T02:26:28.049Z,25.76
2018-11-21T02:28:57.639Z,25.79
2018-11-21T02:31:27.234Z,25.77
2018-11-21T02:33:56.858Z,25.74
2018-11-21T02:36:26.372Z,25.72
2018-11-21T02:38:55.949Z,25.68
2018-11-21T02:41:25.535Z,25.64
2018-11-21T02:43:55.057Z,25.63
2018-11-21T02:46:24.765Z,25.62
2018-11-21T02:48:54.354Z,25.55
2018-11-21T02:51:23.879Z,25.49
2018-11-21T02:53:53.504Z,25.48
2018-11-21T02:56:42.335Z,25.48
2018-11-21T02:59:11.981Z,25.45
2018-11-21T03:01:41.550Z,25.40
2018-11-21T03:04:11.256Z,25.36
2018-11-21T03:06:40.964Z,25.38
2018-11-21T03:09:10.562Z,25.31
2018-11-21T03:11:40.177Z,25.28
2018-11-21T03:14:09.810Z,25.24
2018-11-21T03:16:39.285Z,25.24
2018-11-21T03:19:08.918Z,25.20
2018-11-21T03:21:38.495Z,25.18
2018-11-21T03:24:08.127Z,25.14
2018-11-21T03:26:37.807Z,25.11
2018-11-21T03:29:07.415Z,25.09
2018-11-21T03:31:36.800Z,25.08
2018-11-21T03:34:06.826Z,25.07
2018-11-21T03:36:36.461Z,24.99
2018-11-21T03:39:09.576Z,24.96
2018-11-21T03:41:38.987Z,24.96
2018-11-21T03:44:08.527Z,24.98
2018-11-21T03:46:38.163Z,25.02
2018-11-21T03:49:07.737Z,24.97
2018-11-21T03:51:38.199Z,24.95
2018-11-21T03:54:07.880Z,24.91
2018-11-21T03:56:38.126Z,24.88
2018-11-21T03:59:08.243Z,24.83
2018-11-21T04:01:38.126Z,24.85
2018-11-21T04:04:08.477Z,24.81
2018-11-21T04:06:38.033Z,24.75
2018-11-21T04:09:12.162Z,24.71
2018-11-21T04:11:41.755Z,24.75
2018-11-21T04:14:11.292Z,24.68
2018-11-21T04:16:40.874Z,24.63
2018-11-21T04:19:10.502Z,24.64
2018-11-21T04:21:40.124Z,24.62
2018-11-21T04:24:09.713Z,24.58
2018-11-21T04:26:39.297Z,24.56
2018-11-21T04:29:08.926Z,24.60
2018-11-21T04:31:38.506Z,24.56
2018-11-21T04:34:08.151Z,24.50
2018-11-21T04:36:37.656Z,24.46
2018-11-21T04:39:11.134Z,24.42
2018-11-21T04:41:40.749Z,24.39
2018-11-21T04:44:10.323Z,24.39
2018-11-21T04:46:39.959Z,24.38
2018-11-21T04:49:09.637Z,24.35
2018-11-21T04:51:39.247Z,24.31
2018-11-21T04:54:08.871Z,24.30
2018-11-21T04:56:38.450Z,24.20
2018-11-21T04:59:08.082Z,24.20
2018-11-21T05:01:37.663Z,24.25
2018-11-21T05:04:07.155Z,24.21
2018-11-21T05:06:36.773Z,24.19
2018-11-21T05:09:09.387Z,24.15
2018-11-21T05:11:38.958Z,24.12
2018-11-21T05:14:08.460Z,24.11
2018-11-21T05:16:38.095Z,24.05
2018-11-21T05:19:07.638Z,24.07
2018-11-21T05:21:37.309Z,24.08
2018-11-21T05:24:06.877Z,24.04
2018-11-21T05:26:36.513Z,24.04
2018-11-21T05:29:05.987Z,24.05
2018-11-21T05:31:35.706Z,24.03
2018-11-21T05:34:05.298Z,24.01
2018-11-21T05:36:34.794Z,24.00
2018-11-21T05:39:06.387Z,23.97
2018-11-21T05:41:35.964Z,24.00
2018-11-21T05:44:05.693Z,24.01
2018-11-21T05:46:35.151Z,24.01
2018-11-21T05:49:04.667Z,23.96
2018-11-21T05:51:34.132Z,23.92
2018-11-21T05:54:03.782Z,23.92
2018-11-21T05:56:33.384Z,23.86
2018-11-21T05:59:03.094Z,23.67
2018-11-21T06:01:32.732Z,23.51
2018-11-21T06:04:02.360Z,23.40
2018-11-21T06:06:31.935Z,23.30
2018-11-21T06:09:01.518Z,23.28
2018-11-21T06:11:31.150Z,23.17
2018-11-21T06:14:01.245Z,23.12
2018-11-21T06:16:30.962Z,23.19
2018-11-21T06:19:00.556Z,23.28
2018-11-21T06:21:30.165Z,23.40
2018-11-21T06:23:59.789Z,23.45
2018-11-21T06:26:29.471Z,23.49
2018-11-21T06:28:59.172Z,23.51
2018-11-21T06:31:28.631Z,23.49
2018-11-21T06:33:58.305Z,23.47
2018-11-21T06:36:27.894Z,23.47
2018-11-21T06:38:57.398Z,23.48
2018-11-21T06:41:26.899Z,23.47
2018-11-21T06:43:56.889Z,23.45
2018-11-21T06:46:26.344Z,23.46
2018-11-21T06:48:55.922Z,23.46
2018-11-21T06:51:25.510Z,23.44
2018-11-21T06:53:55.133Z,23.44
2018-11-21T06:56:24.738Z,23.42
2018-11-21T06:58:55.272Z,23.44
2018-11-21T07:01:24.062Z,23.44
2018-11-21T07:03:53.693Z,23.41
2018-11-21T07:06:23.262Z,23.40
2018-11-21T07:08:52.890Z,23.41
2018-11-21T07:11:22.471Z,23.40
2018-11-21T07:13:52.107Z,23.38
2018-11-21T07:16:21.683Z,23.39
2018-11-21T07:18:51.318Z,23.37
2018-11-21T07:21:20.893Z,23.35
2018-11-21T07:23:50.604Z,23.35
2018-11-21T07:26:20.205Z,23.33
2018-11-21T07:28:49.818Z,23.32
2018-11-21T07:31:19.447Z,23.32
2018-11-21T07:33:49.029Z,23.31
2018-11-21T07:36:18.761Z,23.30
2018-11-21T07:38:48.449Z,23.28
2018-11-21T07:41:18.070Z,23.28
2018-11-21T07:43:47.751Z,23.28
2018-11-21T07:46:17.388Z,23.27
2018-11-21T07:48:46.964Z,23.25
2018-11-21T07:51:16.603Z,23.24
2018-11-21T07:53:46.067Z,23.23
2018-11-21T07:57:03.499Z,23.26
2018-11-21T07:59:33.107Z,23.23
2018-11-21T08:02:14.786Z,23.21
2018-11-21T08:04:51.464Z,23.22
2018-11-21T08:07:42.673Z,23.19
2018-11-21T08:10:29.995Z,23.18
2018-11-21T08:13:30.719Z,23.17
2018-11-21T08:16:22.150Z,23.16
2018-11-21T08:19:25.914Z,23.15
2018-11-21T08:22:26.585Z,23.15
2018-11-21T08:25:21.178Z,23.13
2018-11-21T08:28:24.583Z,23.12
2018-11-21T08:30:56.264Z,23.13
2018-11-21T08:33:25.733Z,23.13
2018-11-21T08:35:55.361Z,23.11
2018-11-21T08:38:25.005Z,23.06
2018-11-21T08:40:54.550Z,23.08
2018-11-21T08:43:24.135Z,23.09
2018-11-21T08:45:53.758Z,23.06
2018-11-21T08:48:23.603Z,23.04
2018-11-21T08:50:53.179Z,23.03
2018-11-21T08:53:22.802Z,23.02
2018-11-21T08:55:52.425Z,23.04
2018-11-21T08:58:22.003Z,22.99
2018-11-21T09:00:51.596Z,23.05
2018-11-21T09:03:21.306Z,23.15
2018-11-21T09:05:50.874Z,23.13
2018-11-21T09:08:20.426Z,23.08
2018-11-21T09:10:50.055Z,23.04
2018-11-21T09:13:19.786Z,23.00
2018-11-21T09:15:49.339Z,22.98
2018-11-21T09:18:18.929Z,22.98
2018-11-21T09:20:48.544Z,22.96
2018-11-21T09:23:18.176Z,22.92
2018-11-21T09:25:47.748Z,22.91
2018-11-21T09:28:17.417Z,22.89
2018-11-21T09:30:47.046Z,22.91
2018-11-21T09:33:16.639Z,22.89
2018-11-21T09:35:46.492Z,22.87
2018-11-21T09:38:16.087Z,22.85
2018-11-21T09:40:45.594Z,22.86
2018-11-21T09:43:15.096Z,22.85
2018-11-21T09:45:44.700Z,22.85
2018-11-21T09:48:14.206Z,22.86
2018-11-21T09:50:43.924Z,22.85
2018-11-21T09:53:13.537Z,22.85
2018-11-21T09:55:43.222Z,22.83
2018-11-21T09:58:12.891Z,22.80
2018-11-21T10:01:18.939Z,22.78
2018-11-21T10:03:48.595Z,22.79
2018-11-21T10:06:23.087Z,22.81
2018-11-21T10:08:57.503Z,22.82
2018-11-21T10:11:27.080Z,22.81
2018-11-21T10:13:56.700Z,22.80
2018-11-21T10:16:26.148Z,22.81
2018-11-21T10:18:57.118Z,22.78
2018-11-21T10:21:30.899Z,22.77
2018-11-21T10:24:00.593Z,22.78
2018-11-21T10:26:30.201Z,22.78
2018-11-21T10:28:59.834Z,22.76
2018-11-21T10:31:29.424Z,22.75
2018-11-21T10:33:59.160Z,22.74
2018-11-21T10:36:28.726Z,22.75
2018-11-21T10:38:58.267Z,22.73
2018-11-21T10:41:27.842Z,22.74
2018-11-21T10:43:57.541Z,22.72
2018-11-21T10:46:27.073Z,22.71
2018-11-21T10:48:56.708Z,22.71
2018-11-21T10:51:26.258Z,22.72
2018-11-21T10:53:55.861Z,22.69
2018-11-21T10:56:25.446Z,22.68
2018-11-21T10:58:55.177Z,22.70
2018-11-21T11:01:43.782Z,22.70
2018-11-21T11:04:45.994Z,22.68
2018-11-21T11:07:39.491Z,22.65
2018-11-21T11:10:22.794Z,22.64
2018-11-21T11:13:09.730Z,22.63
2018-11-21T11:15:53.360Z,22.58
2018-11-21T11:18:40.550Z,22.62
2018-11-21T11:21:32.558Z,22.61
2018-11-21T11:24:24.276Z,22.61
2018-11-21T11:27:11.526Z,22.60
2018-11-21T11:30:06.015Z,22.56
2018-11-21T11:33:07.051Z,22.56
2018-11-21T11:35:46.180Z,22.56
2018-11-21T11:38:50.183Z,22.56
2018-11-21T11:41:57.039Z,22.55
2018-11-21T11:44:45.658Z,22.53
2018-11-21T11:47:49.042Z,22.52
2018-11-21T11:50:37.610Z,22.51
2018-11-21T11:53:25.092Z,22.44
2018-11-21T11:56:31.974Z,22.50
2018-11-21T11:59:19.119Z,22.43
2018-11-21T12:02:25.711Z,22.50
2018-11-21T12:05:14.002Z,22.47
2018-11-21T12:08:09.789Z,22.51
2018-11-21T12:11:07.351Z,22.50
2018-11-21T12:14:01.740Z,22.52
2018-11-21T12:16:53.189Z,22.51
2018-11-21T12:19:51.053Z,22.51
2018-11-21T12:22:38.885Z,22.51
2018-11-21T12:25:45.751Z,22.49
2018-11-21T12:28:37.168Z,22.49
2018-11-21T12:31:31.464Z,22.49
2018-11-21T12:34:32.098Z,22.49
2018-11-21T12:37:19.146Z,22.50
2018-11-21T12:40:07.968Z,22.49
2018-11-21T12:42:55.493Z,22.50
2018-11-21T12:45:46.915Z,22.46
2018-11-21T12:48:33.921Z,22.51
2018-11-21T12:51:40.493Z,22.48
2018-11-21T12:54:28.021Z,22.49
2018-11-21T12:57:08.963Z,22.44
2018-11-21T12:59:56.045Z,22.45
2018-11-21T13:02:46.870Z,22.44
2018-11-21T13:05:28.845Z,22.44
2018-11-21T13:08:15.734Z,22.44
2018-11-21T13:11:10.122Z,22.44
2018-11-21T13:13:51.237Z,22.47
2018-11-21T13:16:45.339Z,22.49
2018-11-21T13:19:32.472Z,22.54
2018-11-21T13:22:29.492Z,22.58
2018-11-21T13:25:16.813Z,22.65
2018-11-21T13:27:59.023Z,22.74
2018-11-21T13:30:46.516Z,22.86
2018-11-21T13:33:35.434Z,22.96
2018-11-21T13:36:32.618Z,23.05
2018-11-21T13:39:22.357Z,23.17
2018-11-21T13:42:04.371Z,23.35
2018-11-21T13:44:53.786Z,23.51
2018-11-21T13:47:45.125Z,23.69
2018-11-21T13:50:34.233Z,23.84
2018-11-21T13:53:29.305Z,24.09
2018-11-21T13:55:58.892Z,24.26
2018-11-21T13:58:29.689Z,24.48
2018-11-21T14:00:59.669Z,24.73
2018-11-21T14:03:29.221Z,24.90
2018-11-21T14:05:59.125Z,25.12
2018-11-21T14:08:41.107Z,25.31
2018-11-21T14:11:10.769Z,25.56
2018-11-21T14:13:40.331Z,25.72
2018-11-21T14:16:10.102Z,26.03
2018-11-21T14:18:39.722Z,26.12
2018-11-21T14:21:09.410Z,26.29
2018-11-21T14:23:39.113Z,26.49
2018-11-21T14:26:08.812Z,26.70
2018-11-21T14:28:38.418Z,26.79
2018-11-21T14:31:08.654Z,27.04
2018-11-21T14:33:38.197Z,27.32
2018-11-21T14:36:07.802Z,27.46
2018-11-21T14:38:37.352Z,27.75
2018-11-21T14:41:06.890Z,28.08
2018-11-21T14:43:36.394Z,28.31
2018-11-21T14:46:07.025Z,28.46
2018-11-21T14:48:36.839Z,28.62
2018-11-21T14:51:07.180Z,28.83
2018-11-21T14:53:36.757Z,28.95
2018-11-21T14:56:06.989Z,29.18
2018-11-21T14:58:36.560Z,29.16
2018-11-21T15:01:06.133Z,29.40
2018-11-21T15:03:35.725Z,29.68
2018-11-21T15:06:05.680Z,29.61
2018-11-21T15:08:35.212Z,29.78
2018-11-21T15:11:04.790Z,29.96
2018-11-21T15:13:34.298Z,30.26
2018-11-21T15:16:05.355Z,30.26
2018-11-21T15:18:34.959Z,30.28
2018-11-21T15:21:04.719Z,30.48
2018-11-21T15:23:34.382Z,30.56
2018-11-21T15:26:03.973Z,30.56
2018-11-21T15:28:33.511Z,30.66
2018-11-21T15:31:03.124Z,30.80
2018-11-21T15:33:32.615Z,30.94
2018-11-21T15:36:02.703Z,31.04
2018-11-21T15:38:32.221Z,31.04
2018-11-21T15:41:01.771Z,31.05
2018-11-21T15:43:32.574Z,31.04
2018-11-21T15:46:02.185Z,31.00
2018-11-21T15:48:31.817Z,31.14
2018-11-21T15:51:01.374Z,31.12
2018-11-21T15:53:30.877Z,31.20
2018-11-21T15:56:00.365Z,31.20
2018-11-21T15:58:29.990Z,31.22
2018-11-21T16:00:59.549Z,31.28
2018-11-21T16:03:29.093Z,31.23
2018-11-21T16:06:01.433Z,31.22
2018-11-21T16:08:30.994Z,31.24
2018-11-21T16:11:00.533Z,31.18
2018-11-21T16:13:30.081Z,31.17
2018-11-21T16:15:59.645Z,31.12
2018-11-21T16:18:29.372Z,31.06
